Keystone State — WCJI — position and weather

sailwx.info

Track history (hours):
 
Tides and Currents Weather Stations Pressure Air Temp Water Temp Dewpoint Dewpoint Depression Visibility Wind Speed Wind Dir Waves Ship Positions

Keystone State

Owner: MARITIME ADMINISTRATION, WASHINGTON, DC. More information available from US FCC via Universal Licensing System and Coast Guard Vessel Documentation Center.

Last reported at 2017-Dec-02 19:24 UTC. Time now 2017-Dec-17 15:41 UTC.
Position N 37°46' W 122°18'.
Warning: this ship's position is 14 days out of date.

Length 204 m.

Type: Cargo ship. MMSI: 366565000.

Date/timePositionNaut miles runAvg speedWind from/ knotsBaromVisibWave heightAir tempDewpointWater temp
2017-Dec-02 19:24N 37°46' W 122°18'0 0.0
2017-Dec-02 19:01N 37°46' W 122°18'0 0.0
2017-Dec-02 18:30N 37°46' W 122°18'0 0.0
2017-Dec-02 18:01N 37°46' W 122°18'0 0.0
2017-Dec-02 17:30N 37°46' W 122°18'0 0.0
2017-Dec-02 17:01N 37°46' W 122°18'0 0.7
2017-Dec-02 16:30N 37°46' W 122°19'3 5.8
2017-Dec-02 16:01N 37°47' W 122°22'4 7.3
2017-Dec-02 15:30N 37°50' W 122°25'1 1.7
2017-Dec-02 15:00N 37°51' W 122°25'1 2.9
2017-Dec-02 14:31N 37°50' W 122°27'611.5
2017-Dec-02 14:00N 37°47' W 122°33'713.8
2017-Dec-02 13:31N 37°45' W 122°41'5 9.3
2017-Dec-02 13:00N 37°40' W 122°40'5 9.4
2017-Dec-02 12:30N 37°35' W 122°40'5 9.2
2017-Dec-02 12:00N 37°31' W 122°40'5 9.2
2017-Dec-02 11:31N 37°26' W 122°40'1 2.6
2017-Dec-02 11:00N 37°25' W 122°40'2 4.5
2017-Dec-02 10:29N 37°22' W 122°40'711.1
2017-Dec-02 09:51N 37°16' W 122°42'412.7
2017-Dec-02 09:30N 37°11' W 122°44'612.4
2017-Dec-02 09:00N 37°05' W 122°44'612.3
2017-Dec-02 08:29N 36°59' W 122°43'612.5
2017-Dec-02 08:00N 36°53' W 122°43'3 5.7
2017-Dec-02 07:30N 36°51' W 122°46'4 8.5
2017-Dec-02 07:00N 36°54' W 122°50'1 2.7
2017-Dec-02 06:30N 36°54' W 122°49'713.9
2017-Dec-02 06:00N 36°59' W 122°54'713.9
2017-Dec-02 05:30N 37°04' W 123°00'713.7
2017-Dec-02 05:00N 37°09' W 123°06'713.9
2017-Dec-02 04:30N 37°15' W 123°12'713.3
2017-Dec-02 04:00N 37°18' W 123°19'914.1
2017-Dec-02 03:21N 37°21' W 123°30'813.6
2017-Dec-02 02:47N 37°23' W 123°39'4 8.7
2017-Dec-02 02:22N 37°23' W 123°35'915.7
2017-Dec-02 01:48N 37°21' W 123°24'1813.6
2017-Dec-02 00:31N 37°17' W 123°02'014.4
2017-Dec-02 00:30N 37°17' W 123°02'2 4.7
2017-Dec-02 00:00N 37°16' W 122°60'815.4
2017-Dec-01 23:30N 37°17' W 123°09'917.4
2017-Dec-01 23:00N 37°17' W 123°20'917.6
2017-Dec-01 22:30N 37°18' W 123°31'917.5
2017-Dec-01 22:00N 37°19' W 123°42'1114.8
2017-Dec-01 21:16N 37°27' W 123°52'517.8
2017-Dec-01 21:00N 37°31' W 123°53'917.8
2017-Dec-01 20:30N 37°40' W 123°57'917.7
2017-Dec-01 20:00N 37°48' W 124°00'917.7
2017-Dec-01 19:30N 37°57' W 124°04'1017.6
2017-Dec-01 18:58N 38°06' W 124°08'817.5
2017-Dec-01 18:30N 38°14' W 124°11'1017.7
2017-Dec-01 17:57N 38°23' W 124°14'2118.0
2017-Dec-01 16:48N 38°43' W 124°22'40813.3
2017-Nov-30 10:06N 45°27' W 125°31'613.8
2017-Nov-30 09:42N 45°30' W 125°24'313.1
2017-Nov-30 09:30N 45°31' W 125°21'713.6
2017-Nov-30 09:01N 45°35' W 125°13'713.7
2017-Nov-30 08:30N 45°38' W 125°05'1214.4
2017-Nov-30 07:42N 45°45' W 124°51'314.6
2017-Nov-30 07:30N 45°47' W 124°48'1014.4
2017-Nov-30 06:51N 45°52' W 124°37'514.3
2017-Nov-30 06:30N 45°56' W 124°32'714.3
2017-Nov-30 06:00N 46°01' W 124°25'714.2
2017-Nov-30 05:30N 46°06' W 124°18'714.6
2017-Nov-30 05:00N 46°12' W 124°11'713.5
2017-Nov-30 04:31N 46°16' W 124°03'713.9
2017-Nov-30 04:01N 46°11' W 123°55'5 9.5
2017-Nov-30 03:30N 46°12' W 123°48'612.5
2017-Nov-30 03:01N 46°15' W 123°40'1012.6
2017-Nov-30 02:14N 46°15' W 123°26'415.4
2017-Nov-30 02:00N 46°11' W 123°26'811.7
2017-Nov-30 01:22N 46°09' W 123°15'713.8
2017-Nov-30 00:52N 46°10' W 123°05'617.3
2017-Nov-30 00:31N 46°07' W 122°58'510.6
2017-Nov-30 00:01N 46°03' W 122°53'611.8
2017-Nov-29 23:31N 45°58' W 122°49'714.2
2017-Nov-29 23:00N 45°51' W 122°47'815.4
2017-Nov-29 22:30N 45°43' W 122°46'511.0
2017-Nov-29 22:01N 45°38' W 122°48'4 7.2
2017-Nov-29 21:30N 45°35' W 122°45'1 1.1
2017-Nov-29 21:01N 45°34' W 122°44'0 0.1
2017-Nov-29 20:30N 45°34' W 122°44'0 0.9
2017-Nov-29 20:00N 45°34' W 122°44'0 0.0
2017-Nov-29 19:30N 45°34' W 122°44'0 0.0
2017-Nov-29 18:57N 45°34' W 122°44'0 0.0
2017-Nov-29 18:30N 45°34' W 122°44'0 0.0
2017-Nov-29 18:00N 45°34' W 122°44'0 0.0
2017-Nov-29 17:30N 45°34' W 122°44'0 0.0
2017-Nov-29 16:18N 45°34' W 122°44'0 0.0
2017-Nov-29 16:01N 45°34' W 122°44'0 0.0
2017-Nov-29 15:31N 45°34' W 122°44'0 0.0
2017-Nov-29 15:00N 45°34' W 122°44'0 0.0
2017-Nov-29 14:31N 45°34' W 122°44'0 0.0
2017-Nov-29 14:00N 45°34' W 122°44'0 0.0
2017-Nov-29 13:30N 45°34' W 122°44'0 0.0
2017-Nov-29 13:00N 45°34' W 122°44'0 0.0
2017-Nov-29 12:31N 45°34' W 122°44'0 0.0
2017-Nov-29 12:00N 45°34' W 122°44'0 0.0
2017-Nov-29 11:30N 45°34' W 122°44'0 0.0
2017-Nov-29 11:00N 45°34' W 122°44'0 0.0
2017-Nov-29 10:31N 45°34' W 122°44'0 0.0
2017-Nov-29 10:01N 45°34' W 122°44'0 0.0
2017-Nov-29 09:30N 45°34' W 122°44'0 0.0
2017-Nov-29 09:01N 45°34' W 122°44'0 0.0
2017-Nov-29 08:30N 45°34' W 122°44'0 0.0
2017-Nov-29 08:00N 45°34' W 122°44'0 0.0
2017-Nov-29 07:31N 45°34' W 122°44'0 0.0
2017-Nov-29 07:00N 45°34' W 122°44'0 0.0
2017-Nov-29 06:30N 45°34' W 122°44'0 0.0
2017-Nov-29 06:01N 45°34' W 122°44'0 0.0
2017-Nov-29 05:30N 45°34' W 122°44'0 0.0
2017-Nov-29 05:00N 45°34' W 122°44'0 0.0
2017-Nov-29 04:30N 45°34' W 122°44'0 0.0
2017-Nov-29 04:00N 45°34' W 122°44'0 0.0
2017-Nov-29 03:31N 45°34' W 122°44'0 0.0
2017-Nov-29 03:01N 45°34' W 122°44'0 0.0
2017-Nov-29 02:30N 45°34' W 122°44'0 0.0
2017-Nov-29 02:01N 45°34' W 122°44'0 0.0
2017-Nov-29 01:31N 45°34' W 122°44'0 0.0
2017-Nov-29 01:00N 45°34' W 122°44'0 0.0
2017-Nov-29 00:31N 45°34' W 122°44'0 0.0
2017-Nov-29 00:00N 45°34' W 122°44'0 0.0
2017-Nov-28 23:30N 45°34' W 122°44'0 0.0
2017-Nov-28 23:00N 45°34' W 122°44'0 0.0
2017-Nov-28 22:31N 45°34' W 122°44'0 0.0
2017-Nov-28 22:00N 45°34' W 122°44'0 0.0
2017-Nov-28 21:30N 45°34' W 122°44'0 0.0
2017-Nov-28 21:00N 45°34' W 122°44'0 0.0
2017-Nov-28 20:30N 45°34' W 122°44'0 0.0
2017-Nov-28 20:00N 45°34' W 122°44'0 0.0
2017-Nov-28 19:30N 45°34' W 122°44'0 0.0
2017-Nov-28 19:00N 45°34' W 122°44'0 0.0
2017-Nov-28 18:30N 45°34' W 122°44'0 0.0
2017-Nov-28 18:00N 45°34' W 122°44'0 0.0
2017-Nov-28 17:30N 45°34' W 122°44'0 0.0
2017-Nov-28 17:00N 45°34' W 122°44'0 0.0
2017-Nov-28 16:31N 45°34' W 122°44'0 0.0
2017-Nov-28 16:00N 45°34' W 122°44'0 0.0
2017-Nov-28 15:01N 45°34' W 122°44'  
Track history (hours):
 
Tides and Currents Weather Stations Pressure Air Temp Water Temp Dewpoint Dewpoint Depression Visibility Wind Speed Wind Dir Waves Ship Positions

Keystone State

Owner: MARITIME ADMINISTRATION, WASHINGTON, DC. More information available from US FCC via Universal Licensing System and Coast Guard Vessel Documentation Center.

Last reported at 2017-Dec-02 19:24 UTC. Time now 2017-Dec-17 15:41 UTC.
Position N 37°46' W 122°18'.
Warning: this ship's position is 14 days out of date.

Length 204 m.

Type: Cargo ship. MMSI: 366565000.

Date/timePositionNaut miles runAvg speedWind from/ knotsBaromVisibWave heightAir tempDewpointWater temp
2017-Dec-02 19:24N 37°46' W 122°18'0 0.0
2017-Dec-02 19:01N 37°46' W 122°18'0 0.0
2017-Dec-02 18:30N 37°46' W 122°18'0 0.0
2017-Dec-02 18:01N 37°46' W 122°18'0 0.0
2017-Dec-02 17:30N 37°46' W 122°18'0 0.0
2017-Dec-02 17:01N 37°46' W 122°18'0 0.7
2017-Dec-02 16:30N 37°46' W 122°19'3 5.8
2017-Dec-02 16:01N 37°47' W 122°22'4 7.3
2017-Dec-02 15:30N 37°50' W 122°25'1 1.7
2017-Dec-02 15:00N 37°51' W 122°25'1 2.9
2017-Dec-02 14:31N 37°50' W 122°27'611.5
2017-Dec-02 14:00N 37°47' W 122°33'713.8
2017-Dec-02 13:31N 37°45' W 122°41'5 9.3
2017-Dec-02 13:00N 37°40' W 122°40'5 9.4
2017-Dec-02 12:30N 37°35' W 122°40'5 9.2
2017-Dec-02 12:00N 37°31' W 122°40'5 9.2
2017-Dec-02 11:31N 37°26' W 122°40'1 2.6
2017-Dec-02 11:00N 37°25' W 122°40'2 4.5
2017-Dec-02 10:29N 37°22' W 122°40'711.1
2017-Dec-02 09:51N 37°16' W 122°42'412.7
2017-Dec-02 09:30N 37°11' W 122°44'612.4
2017-Dec-02 09:00N 37°05' W 122°44'612.3
2017-Dec-02 08:29N 36°59' W 122°43'612.5
2017-Dec-02 08:00N 36°53' W 122°43'3 5.7
2017-Dec-02 07:30N 36°51' W 122°46'4 8.5
2017-Dec-02 07:00N 36°54' W 122°50'1 2.7
2017-Dec-02 06:30N 36°54' W 122°49'713.9
2017-Dec-02 06:00N 36°59' W 122°54'713.9
2017-Dec-02 05:30N 37°04' W 123°00'713.7
2017-Dec-02 05:00N 37°09' W 123°06'713.9
2017-Dec-02 04:30N 37°15' W 123°12'713.3
2017-Dec-02 04:00N 37°18' W 123°19'914.1
2017-Dec-02 03:21N 37°21' W 123°30'813.6
2017-Dec-02 02:47N 37°23' W 123°39'4 8.7
2017-Dec-02 02:22N 37°23' W 123°35'915.7
2017-Dec-02 01:48N 37°21' W 123°24'1813.6
2017-Dec-02 00:31N 37°17' W 123°02'014.4
2017-Dec-02 00:30N 37°17' W 123°02'2 4.7
2017-Dec-02 00:00N 37°16' W 122°60'815.4
2017-Dec-01 23:30N 37°17' W 123°09'917.4
2017-Dec-01 23:00N 37°17' W 123°20'917.6
2017-Dec-01 22:30N 37°18' W 123°31'917.5
2017-Dec-01 22:00N 37°19' W 123°42'1114.8
2017-Dec-01 21:16N 37°27' W 123°52'517.8
2017-Dec-01 21:00N 37°31' W 123°53'917.8
2017-Dec-01 20:30N 37°40' W 123°57'917.7
2017-Dec-01 20:00N 37°48' W 124°00'917.7
2017-Dec-01 19:30N 37°57' W 124°04'1017.6
2017-Dec-01 18:58N 38°06' W 124°08'817.5
2017-Dec-01 18:30N 38°14' W 124°11'1017.7
2017-Dec-01 17:57N 38°23' W 124°14'2118.0
2017-Dec-01 16:48N 38°43' W 124°22'40813.3
2017-Nov-30 10:06N 45°27' W 125°31'613.8
2017-Nov-30 09:42N 45°30' W 125°24'313.1
2017-Nov-30 09:30N 45°31' W 125°21'713.6
2017-Nov-30 09:01N 45°35' W 125°13'713.7
2017-Nov-30 08:30N 45°38' W 125°05'1214.4
2017-Nov-30 07:42N 45°45' W 124°51'314.6
2017-Nov-30 07:30N 45°47' W 124°48'1014.4
2017-Nov-30 06:51N 45°52' W 124°37'514.3
2017-Nov-30 06:30N 45°56' W 124°32'714.3
2017-Nov-30 06:00N 46°01' W 124°25'714.2
2017-Nov-30 05:30N 46°06' W 124°18'714.6
2017-Nov-30 05:00N 46°12' W 124°11'713.5
2017-Nov-30 04:31N 46°16' W 124°03'713.9
2017-Nov-30 04:01N 46°11' W 123°55'5 9.5
2017-Nov-30 03:30N 46°12' W 123°48'612.5
2017-Nov-30 03:01N 46°15' W 123°40'1012.6
2017-Nov-30 02:14N 46°15' W 123°26'415.4
2017-Nov-30 02:00N 46°11' W 123°26'811.7
2017-Nov-30 01:22N 46°09' W 123°15'713.8
2017-Nov-30 00:52N 46°10' W 123°05'617.3
2017-Nov-30 00:31N 46°07' W 122°58'510.6
2017-Nov-30 00:01N 46°03' W 122°53'611.8
2017-Nov-29 23:31N 45°58' W 122°49'714.2
2017-Nov-29 23:00N 45°51' W 122°47'815.4
2017-Nov-29 22:30N 45°43' W 122°46'511.0
2017-Nov-29 22:01N 45°38' W 122°48'4 7.2
2017-Nov-29 21:30N 45°35' W 122°45'1 1.1
2017-Nov-29 21:01N 45°34' W 122°44'0 0.1
2017-Nov-29 20:30N 45°34' W 122°44'0 0.9
2017-Nov-29 20:00N 45°34' W 122°44'0 0.0
2017-Nov-29 19:30N 45°34' W 122°44'0 0.0
2017-Nov-29 18:57N 45°34' W 122°44'0 0.0
2017-Nov-29 18:30N 45°34' W 122°44'0 0.0
2017-Nov-29 18:00N 45°34' W 122°44'0 0.0
2017-Nov-29 17:30N 45°34' W 122°44'0 0.0
2017-Nov-29 16:18N 45°34' W 122°44'0 0.0
2017-Nov-29 16:01N 45°34' W 122°44'0 0.0
2017-Nov-29 15:31N 45°34' W 122°44'0 0.0
2017-Nov-29 15:00N 45°34' W 122°44'0 0.0
2017-Nov-29 14:31N 45°34' W 122°44'0 0.0
2017-Nov-29 14:00N 45°34' W 122°44'0 0.0
2017-Nov-29 13:30N 45°34' W 122°44'0 0.0
2017-Nov-29 13:00N 45°34' W 122°44'0 0.0
2017-Nov-29 12:31N 45°34' W 122°44'0 0.0
2017-Nov-29 12:00N 45°34' W 122°44'0 0.0
2017-Nov-29 11:30N 45°34' W 122°44'0 0.0
2017-Nov-29 11:00N 45°34' W 122°44'0 0.0
2017-Nov-29 10:31N 45°34' W 122°44'0 0.0
2017-Nov-29 10:01N 45°34' W 122°44'0 0.0
2017-Nov-29 09:30N 45°34' W 122°44'0 0.0
2017-Nov-29 09:01N 45°34' W 122°44'0 0.0
2017-Nov-29 08:30N 45°34' W 122°44'0 0.0
2017-Nov-29 08:00N 45°34' W 122°44'0 0.0
2017-Nov-29 07:31N 45°34' W 122°44'0 0.0
2017-Nov-29 07:00N 45°34' W 122°44'0 0.0
2017-Nov-29 06:30N 45°34' W 122°44'0 0.0
2017-Nov-29 06:01N 45°34' W 122°44'0 0.0
2017-Nov-29 05:30N 45°34' W 122°44'0 0.0
2017-Nov-29 05:00N 45°34' W 122°44'0 0.0
2017-Nov-29 04:30N 45°34' W 122°44'0 0.0
2017-Nov-29 04:00N 45°34' W 122°44'0 0.0
2017-Nov-29 03:31N 45°34' W 122°44'0 0.0
2017-Nov-29 03:01N 45°34' W 122°44'0 0.0
2017-Nov-29 02:30N 45°34' W 122°44'0 0.0
2017-Nov-29 02:01N 45°34' W 122°44'0 0.0
2017-Nov-29 01:31N 45°34' W 122°44'0 0.0
2017-Nov-29 01:00N 45°34' W 122°44'0 0.0
2017-Nov-29 00:31N 45°34' W 122°44'0 0.0
2017-Nov-29 00:00N 45°34' W 122°44'0 0.0
2017-Nov-28 23:30N 45°34' W 122°44'0 0.0
2017-Nov-28 23:00N 45°34' W 122°44'0 0.0
2017-Nov-28 22:31N 45°34' W 122°44'0 0.0
2017-Nov-28 22:00N 45°34' W 122°44'0 0.0
2017-Nov-28 21:30N 45°34' W 122°44'0 0.0
2017-Nov-28 21:00N 45°34' W 122°44'0 0.0
2017-Nov-28 20:30N 45°34' W 122°44'0 0.0
2017-Nov-28 20:00N 45°34' W 122°44'0 0.0
2017-Nov-28 19:30N 45°34' W 122°44'0 0.0
2017-Nov-28 19:00N 45°34' W 122°44'0 0.0
2017-Nov-28 18:30N 45°34' W 122°44'0 0.0
2017-Nov-28 18:00N 45°34' W 122°44'0 0.0
2017-Nov-28 17:30N 45°34' W 122°44'0 0.0
2017-Nov-28 17:00N 45°34' W 122°44'0 0.0
2017-Nov-28 16:31N 45°34' W 122°44'0 0.0
2017-Nov-28 16:00N 45°34' W 122°44'0 0.0
2017-Nov-28 15:01N 45°34' W 122°44'  

Dump ship's entire track history